Terminal Aerodrome Forecast
Issued by NWS Blacksburg, VA

Home | Current Version | Previous Version | Text Only | Print | Product List | Glossary On
Versions: 1 2 3 4 5 6 7 8 9 10 11 12 13
000
FTUS41 KRNK 200520
TAFDAN
TAF
KDAN 200520Z 2006/2106 03007KT P6SM SCT120 OVC200
     FM201500 05011G20KT P6SM BKN200
     FM202300 05004KT P6SM SCT250=

USA.gov is the U.S. government's official web portal to all federal, state and local government web resources and services.